Time;durP1;ratioP1;P1;durP2;ratioP2;P2;SDS_P1;SDS_P2;PMS_P1;PMS_P2;Temp;Humidity;BMP_temperature;BMP_pressure;BME280_temperature;BME280_humidity;BME280_pressure;Samples;Min_cycle;Max_cycle;Signal;HPM_P1;HPM_P2
2021/12/04 00:01:54;;;;;;;33.57;17.67;;;4.30;99.90;;;;;;5031934;28;20457;-53
2021/12/04 00:04:30;;;;;;;32.80;17.63;;;4.30;99.90;;;;;;5033263;28;20410;-53
2021/12/04 00:06:56;;;;;;;29.50;16.13;;;4.30;99.90;;;;;;5019391;28;20569;-54
2021/12/04 00:09:22;;;;;;;32.37;17.90;;;4.30;99.90;;;;;;5031696;28;20556;-53
2021/12/04 00:11:57;;;;;;;31.43;17.70;;;4.30;99.90;;;;;;5033179;28;20179;-53
2021/12/04 00:14:22;;;;;;;34.83;18.27;;;4.30;99.90;;;;;;5032935;28;20222;-54
2021/12/04 00:16:48;;;;;;;34.27;17.50;;;4.30;99.90;;;;;;5032925;28;20896;-53
2021/12/04 00:19:14;;;;;;;34.20;18.27;;;4.30;99.90;;;;;;5021305;28;20183;-53
2021/12/04 00:21:39;;;;;;;34.47;18.67;;;4.40;99.90;;;;;;5013286;28;20176;-53
2021/12/04 00:24:05;;;;;;;37.43;18.70;;;4.30;99.90;;;;;;5013323;28;20188;-53
2021/12/04 00:26:30;;;;;;;36.43;18.77;;;4.40;99.90;;;;;;5013275;28;20286;-54
2021/12/04 00:28:56;;;;;;;36.80;19.13;;;4.30;99.90;;;;;;5013388;28;20211;-52
2021/12/04 00:31:22;;;;;;;34.13;18.07;;;4.40;99.90;;;;;;5025201;28;20198;-53
2021/12/04 00:33:48;;;;;;;39.83;19.70;;;4.30;99.90;;;;;;5021441;28;20707;-53
2021/12/04 00:49:58;;;;;;;45.60;21.10;;;4.30;99.90;;;;;;5015984;28;20477;-53
2021/12/04 00:52:24;;;;;;;38.27;19.80;;;4.30;99.90;;;;;;5012520;28;20423;-54
2021/12/04 00:54:49;;;;;;;39.97;21.07;;;4.40;99.90;;;;;;5012820;28;20262;-54
2021/12/04 00:57:15;;;;;;;42.07;21.20;;;4.40;99.90;;;;;;5012749;28;20210;-54
2021/12/04 00:59:41;;;;;;;49.87;20.87;;;4.30;99.90;;;;;;5023152;28;20194;-54
2021/12/04 01:02:06;;;;;;;40.00;21.30;;;4.40;99.90;;;;;;5031975;28;20560;-54
2021/12/04 01:04:32;;;;;;;42.77;21.80;;;4.40;99.90;;;;;;5015773;28;20193;-53
2021/12/04 01:06:58;;;;;;;43.30;20.90;;;4.40;99.90;;;;;;5012432;28;20187;-53
2021/12/04 01:09:25;;;;;;;39.27;19.50;;;4.40;99.90;;;;;;5012861;28;20457;-54
2021/12/04 01:11:53;;;;;;;39.30;19.90;;;4.30;99.90;;;;;;5012242;28;20175;-53
2021/12/04 01:14:26;;;;;;;43.57;20.93;;;4.40;99.90;;;;;;5012136;28;20521;-53
2021/12/04 01:16:52;;;;;;;42.63;21.13;;;4.40;99.90;;;;;;5012015;28;20403;-52
2021/12/04 01:19:19;;;;;;;41.57;20.13;;;4.40;99.90;;;;;;5012767;28;20545;-53
2021/12/04 01:21:45;;;;;;;43.23;19.87;;;4.40;99.90;;;;;;5012147;28;20164;-53
2021/12/04 01:24:11;;;;;;;43.43;19.20;;;4.30;99.90;;;;;;5012387;28;20457;-54
2021/12/04 01:26:38;;;;;;;34.53;19.27;;;4.40;99.90;;;;;;5027378;28;20434;-53
2021/12/04 01:29:03;;;;;;;37.40;19.70;;;4.40;99.90;;;;;;5011691;28;20488;-53
2021/12/04 01:31:29;;;;;;;36.43;18.97;;;4.30;99.90;;;;;;5015446;28;20441;-53
2021/12/04 01:33:54;;;;;;;35.80;18.33;;;4.40;99.90;;;;;;5031485;28;20209;-53
2021/12/04 01:36:21;;;;;;;35.27;18.67;;;4.30;99.90;;;;;;5031669;28;20198;-53
2021/12/04 01:38:46;;;;;;;37.93;18.43;;;4.40;99.90;;;;;;5031516;28;20648;-53
2021/12/04 01:41:13;;;;;;;35.80;19.00;;;4.40;99.90;;;;;;5019066;28;20438;-53
2021/12/04 01:43:39;;;;;;;37.90;18.73;;;4.40;99.90;;;;;;5011919;28;20556;-53
2021/12/04 01:46:04;;;;;;;35.53;17.90;;;4.40;99.90;;;;;;5010590;28;20435;-53
2021/12/04 01:48:30;;;;;;;33.40;18.73;;;4.40;99.90;;;;;;5011762;28;20845;-53
2021/12/04 01:50:56;;;;;;;34.43;18.40;;;4.40;99.90;;;;;;5012024;28;20223;-53
2021/12/04 01:53:23;;;;;;;36.63;18.63;;;4.40;99.90;;;;;;5029941;28;20957;-54
2021/12/04 01:55:51;;;;;;;34.70;18.40;;;4.40;99.90;;;;;;5031208;28;20493;-53
2021/12/04 01:58:17;;;;;;;35.47;18.43;;;4.40;99.90;;;;;;5024947;28;20422;-53
2021/12/04 02:00:43;;;;;;;37.63;19.20;;;4.40;99.90;;;;;;5025028;28;20437;-53
2021/12/04 02:03:12;;;;;;;37.63;19.63;;;4.40;99.90;;;;;;5011651;28;20168;-53
2021/12/04 02:05:38;;;;;;;38.83;18.70;;;4.40;99.90;;;;;;5011505;28;20176;-53
2021/12/04 02:08:05;;;;;;;35.27;19.40;;;4.40;99.90;;;;;;5011484;28;20977;-53
2021/12/04 02:10:31;;;;;;;36.30;19.57;;;4.40;99.90;;;;;;5025023;28;20191;-53
2021/12/04 02:12:56;;;;;;;37.53;18.80;;;4.40;99.90;;;;;;5029697;28;21013;-53
2021/12/04 02:15:22;;;;;;;36.00;19.10;;;4.30;99.90;;;;;;5029627;28;20214;-53
2021/12/04 02:17:49;;;;;;;34.30;18.73;;;4.40;99.90;;;;;;5031141;28;20187;-53
2021/12/04 02:20:21;;;;;;;40.03;18.77;;;4.40;99.90;;;;;;5029766;28;20174;-53
2021/12/04 02:22:48;;;;;;;41.93;18.33;;;4.30;99.90;;;;;;5011283;28;21115;-53
2021/12/04 02:25:15;;;;;;;35.77;17.97;;;4.30;99.90;;;;;;5017974;28;20426;-53
2021/12/04 02:27:40;;;;;;;41.70;18.77;;;4.30;99.90;;;;;;5015649;28;20442;-53
2021/12/04 02:30:20;;;;;;;38.77;20.47;;;4.30;99.90;;;;;;5011055;28;20469;-53
2021/12/04 02:32:47;;;;;;;38.20;19.10;;;4.30;99.90;;;;;;5011033;28;20203;-53
2021/12/04 02:35:15;;;;;;;44.43;20.67;;;4.30;99.90;;;;;;5013782;28;20407;-53
2021/12/04 02:37:41;;;;;;;40.33;19.77;;;4.40;99.90;;;;;;5029388;28;20422;-53
2021/12/04 02:40:09;;;;;;;37.90;20.00;;;4.30;99.90;;;;;;5030883;28;20410;-53
2021/12/04 02:42:35;;;;;;;38.90;19.60;;;4.30;99.90;;;;;;5011356;28;20526;-53
2021/12/04 02:45:03;;;;;;;41.23;20.00;;;4.30;99.90;;;;;;5011098;28;20506;-54
2021/12/04 02:47:29;;;;;;;41.33;20.67;;;4.30;99.90;;;;;;5010890;28;20791;-53
2021/12/04 02:49:56;;;;;;;46.53;21.10;;;4.30;99.90;;;;;;5011102;28;20492;-53
2021/12/04 02:52:23;;;;;;;42.70;20.40;;;4.30;99.90;;;;;;5010917;28;20489;-53
2021/12/04 02:54:50;;;;;;;46.77;21.10;;;4.30;99.90;;;;;;5011020;28;20458;-53
2021/12/04 02:57:17;;;;;;;45.67;23.17;;;4.30;99.90;;;;;;5011461;28;20430;-53
2021/12/04 02:59:43;;;;;;;47.43;22.70;;;4.30;99.90;;;;;;5013776;28;20763;-53
2021/12/04 03:02:20;;;;;;;48.03;23.20;;;4.30;99.90;;;;;;5015677;28;21078;-53
2021/12/04 03:04:48;;;;;;;50.57;22.43;;;4.30;99.90;;;;;;5014773;28;20437;-53
2021/12/04 03:07:14;;;;;;;47.47;22.80;;;4.30;99.90;;;;;;5034513;28;20417;-54
2021/12/04 03:09:40;;;;;;;46.83;22.30;;;4.30;99.90;;;;;;5034539;28;20749;-54
2021/12/04 03:12:07;;;;;;;52.20;24.77;;;4.30;99.90;;;;;;5015517;28;20425;-54
2021/12/04 03:14:33;;;;;;;52.10;23.87;;;4.30;99.90;;;;;;5014638;28;20216;-54
2021/12/04 03:16:59;;;;;;;50.50;24.77;;;4.40;99.90;;;;;;5021742;28;20997;-53
2021/12/04 03:19:25;;;;;;;49.27;22.17;;;4.40;99.90;;;;;;5018954;28;20873;-53
2021/12/04 03:21:51;;;;;;;47.13;24.43;;;4.40;99.90;;;;;;5014733;28;20183;-54
2021/12/04 03:24:18;;;;;;;47.70;22.10;;;4.40;99.90;;;;;;5014254;28;20432;-53
2021/12/04 03:26:46;;;;;;;55.10;24.10;;;4.30;99.90;;;;;;5014011;28;20417;-53
2021/12/04 03:29:17;;;;;;;48.93;23.33;;;4.30;99.90;;;;;;5014291;28;20414;-54
2021/12/04 03:42:30;;;;;;;57.63;23.63;;;4.30;99.90;;;;;;5019280;28;20428;-54
2021/12/04 03:44:56;;;;;;;57.53;25.03;;;4.30;99.90;;;;;;5033594;28;20417;-53
2021/12/04 03:47:22;;;;;;;49.60;24.50;;;4.30;99.90;;;;;;5015705;28;20192;-53
2021/12/04 03:49:48;;;;;;;56.30;27.23;;;4.40;99.90;;;;;;5013569;28;20183;-53
2021/12/04 03:52:15;;;;;;;44.77;22.00;;;4.40;99.90;;;;;;5029590;28;20524;-53
2021/12/04 03:54:41;;;;;;;54.63;24.57;;;4.40;99.90;;;;;;5033313;28;20488;-53
2021/12/04 03:57:08;;;;;;;51.70;24.87;;;4.40;99.90;;;;;;5013696;28;20905;-53
2021/12/04 03:59:39;;;;;;;57.43;25.47;;;4.40;99.90;;;;;;5013552;28;20419;-53
2021/12/04 04:02:07;;;;;;;54.53;25.00;;;4.30;99.90;;;;;;5013856;28;20916;-54
2021/12/04 04:04:33;;;;;;;51.63;24.00;;;4.30;99.90;;;;;;5013518;28;20464;-53
2021/12/04 04:07:01;;;;;;;52.90;24.60;;;4.30;99.90;;;;;;5013477;28;20403;-53
2021/12/04 04:09:28;;;;;;;55.87;26.20;;;4.30;99.90;;;;;;5012382;28;20889;-53
2021/12/04 04:11:54;;;;;;;59.83;27.70;;;4.40;99.90;;;;;;5025871;28;20457;-54
2021/12/04 04:14:20;;;;;;;58.07;27.13;;;4.40;99.90;;;;;;5022758;28;20510;-53
2021/12/04 04:16:46;;;;;;;56.83;25.60;;;4.40;99.90;;;;;;5020628;28;20417;-53
2021/12/04 04:19:11;;;;;;;56.70;24.70;;;4.30;99.90;;;;;;5033060;28;20414;-53
2021/12/04 04:21:39;;;;;;;65.73;28.20;;;4.30;99.90;;;;;;5017266;28;20188;-53
2021/12/04 04:24:09;;;;;;;60.13;26.30;;;4.30;99.90;;;;;;5013096;28;20230;-53
2021/12/04 04:26:36;;;;;;;57.97;26.47;;;4.40;99.90;;;;;;5013005;28;20419;-53
2021/12/04 04:29:05;;;;;;;56.47;26.23;;;4.40;99.90;;;;;;5011792;28;20411;-54
2021/12/04 04:31:32;;;;;;;55.17;26.97;;;4.40;99.90;;;;;;5013488;28;20426;-53
2021/12/04 04:34:02;;;;;;;54.57;25.77;;;4.40;99.90;;;;;;5013197;28;20470;-53
2021/12/04 05:01:11;;;;;;;56.40;27.33;;;4.30;99.90;;;;;;5019185;28;20430;-50
2021/12/04 05:12:10;;;;;;;63.83;27.13;;;4.20;99.90;;;;;;5012226;28;20750;-50
2021/12/04 05:14:39;;;;;;;53.50;23.33;;;4.20;99.90;;;;;;5012289;28;21007;-50
2021/12/04 05:17:08;;;;;;;53.00;25.47;;;4.20;99.90;;;;;;5012085;28;20454;-50
2021/12/04 05:19:52;;;;;;;56.43;25.00;;;4.30;99.90;;;;;;5012480;28;20450;-50
2021/12/04 05:22:17;;;;;;;49.63;23.97;;;4.40;99.90;;;;;;5011044;28;20446;-50
2021/12/04 05:24:43;;;;;;;54.27;25.00;;;4.30;99.90;;;;;;5012372;28;20428;-50
2021/12/04 05:27:09;;;;;;;53.43;25.67;;;4.30;99.90;;;;;;5012120;28;20214;-50
2021/12/04 05:29:35;;;;;;;56.17;24.87;;;4.30;99.90;;;;;;5020725;28;20194;-51
2021/12/04 05:32:03;;;;;;;55.20;25.50;;;4.30;99.90;;;;;;5031726;28;20409;-50
2021/12/04 05:34:29;;;;;;;56.87;24.70;;;4.20;99.90;;;;;;5017328;28;20566;-50
2021/12/04 05:36:55;;;;;;;53.63;23.70;;;4.20;99.90;;;;;;5028285;28;20417;-50
2021/12/04 05:39:21;;;;;;;48.80;23.40;;;4.30;99.90;;;;;;5031511;28;20433;-51
2021/12/04 05:41:46;;;;;;;49.17;24.00;;;4.30;99.90;;;;;;5011867;28;20466;-50
2021/12/04 05:44:14;;;;;;;52.07;23.30;;;4.40;99.90;;;;;;5011676;28;20183;-50
2021/12/04 05:46:46;;;;;;;57.60;24.13;;;4.30;99.90;;;;;;5011758;28;20233;-50
2021/12/04 05:57:08;;;;;;;49.50;24.03;;;4.20;99.90;;;;;;5011900;28;20246;-51
2021/12/04 05:59:34;;;;;;;52.33;23.70;;;4.30;99.90;;;;;;5011642;28;20427;-50
2021/12/04 06:01:59;;;;;;;57.40;25.90;;;4.20;99.90;;;;;;5011573;28;20439;-50
2021/12/04 06:04:25;;;;;;;51.60;23.27;;;4.20;99.90;;;;;;5011526;28;20477;-50
2021/12/04 06:06:51;;;;;;;59.63;25.00;;;4.30;99.90;;;;;;5011417;28;20552;-50
2021/12/04 06:09:17;;;;;;;53.20;23.77;;;4.30;99.90;;;;;;5029090;28;20277;-50
2021/12/04 06:11:43;;;;;;;49.00;24.10;;;4.30;99.90;;;;;;5014137;28;20445;-50
2021/12/04 06:14:08;;;;;;;55.50;25.40;;;4.30;99.90;;;;;;5011333;28;20203;-51
2021/12/04 06:16:34;;;;;;;51.80;24.70;;;4.30;99.90;;;;;;5011283;28;20212;-50
2021/12/04 06:19:09;;;;;;;52.97;23.27;;;4.20;99.90;;;;;;5022639;28;20187;-50
2021/12/04 06:24:19;;;;;;;51.03;23.77;;;4.20;99.90;;;;;;5024811;28;20457;-50
2021/12/04 06:26:45;;;;;;;50.00;23.77;;;4.20;99.90;;;;;;5029787;28;20465;-50
2021/12/04 06:29:10;;;;;;;52.60;23.23;;;4.20;99.90;;;;;;5021674;28;20187;-50
2021/12/04 06:31:36;;;;;;;50.93;24.00;;;4.20;99.90;;;;;;5025995;28;20733;-50
2021/12/04 06:34:02;;;;;;;54.43;23.40;;;4.20;99.90;;;;;;5033672;28;20273;-50
2021/12/04 06:36:27;;;;;;;49.20;23.47;;;4.20;99.90;;;;;;5034903;28;20203;-50
2021/12/04 06:38:54;;;;;;;50.53;23.27;;;4.20;99.90;;;;;;5034946;28;20635;-50
2021/12/04 06:41:20;;;;;;;48.90;22.13;;;4.20;99.90;;;;;;5021694;28;20592;-50
2021/12/04 06:43:51;;;;;;;48.93;21.50;;;4.20;99.90;;;;;;5015746;28;20414;-50
2021/12/04 06:46:20;;;;;;;48.70;23.10;;;4.20;99.90;;;;;;5032351;28;20434;-50
2021/12/04 06:49:00;;;;;;;54.23;23.73;;;4.20;99.90;;;;;;5034692;28;20422;-50
2021/12/04 06:51:31;;;;;;;47.23;21.63;;;4.20;99.90;;;;;;5034683;28;20477;-50
2021/12/04 06:54:02;;;;;;;43.63;22.60;;;4.20;99.90;;;;;;5034389;28;21025;-50
2021/12/04 06:56:39;;;;;;;49.20;23.43;;;4.10;99.90;;;;;;5014826;28;20426;-50
2021/12/04 06:59:12;;;;;;;52.57;21.40;;;4.20;99.90;;;;;;5024635;28;20433;-50
2021/12/04 07:01:39;;;;;;;48.70;22.10;;;4.10;99.90;;;;;;5034414;28;20418;-50
2021/12/04 07:04:05;;;;;;;43.37;21.43;;;4.10;99.90;;;;;;5032457;28;20442;-51
2021/12/04 07:06:32;;;;;;;40.27;19.83;;;4.10;99.90;;;;;;5014681;28;20426;-51
2021/12/04 07:08:58;;;;;;;42.53;20.53;;;4.20;99.90;;;;;;5025824;28;20445;-51
2021/12/04 07:11:27;;;;;;;48.67;22.37;;;4.10;99.90;;;;;;5034420;28;20409;-50
2021/12/04 07:13:53;;;;;;;43.70;20.43;;;4.10;99.90;;;;;;5032588;28;20461;-51
2021/12/04 07:16:22;;;;;;;38.33;18.43;;;4.10;99.90;;;;;;5034277;28;20402;-50
2021/12/04 07:18:48;;;;;;;38.20;19.50;;;4.30;99.90;;;;;;5031420;28;20628;-52
2021/12/04 07:21:14;;;;;;;42.37;20.07;;;4.20;99.90;;;;;;5014465;28;20414;-50
2021/12/04 07:23:39;;;;;;;39.67;19.87;;;4.20;99.90;;;;;;5013483;28;20180;-51
2021/12/04 07:26:06;;;;;;;38.93;19.13;;;4.20;99.90;;;;;;5014157;28;20402;-51
2021/12/04 07:28:32;;;;;;;39.47;19.77;;;4.20;99.90;;;;;;5014241;28;20579;-50
2021/12/04 07:30:58;;;;;;;34.60;18.57;;;4.20;99.90;;;;;;5014784;28;20415;-50
2021/12/04 07:33:24;;;;;;;42.13;18.77;;;4.20;99.90;;;;;;5014047;28;20508;-51
2021/12/04 07:35:51;;;;;;;38.10;18.97;;;4.20;99.90;;;;;;5031303;28;20194;-51
2021/12/04 07:38:17;;;;;;;40.23;18.40;;;4.20;99.90;;;;;;5033886;28;20250;-51
2021/12/04 07:40:44;;;;;;;38.50;18.27;;;4.10;99.90;;;;;;5033813;28;20413;-50
2021/12/04 07:43:10;;;;;;;36.13;17.70;;;4.20;99.90;;;;;;5015639;28;20979;-51
2021/12/04 07:45:36;;;;;;;38.70;18.60;;;4.20;99.90;;;;;;5021463;28;20899;-51
2021/12/04 07:48:02;;;;;;;43.47;18.87;;;4.20;99.90;;;;;;5020095;28;20425;-51
2021/12/04 07:50:29;;;;;;;34.03;17.03;;;4.20;99.90;;;;;;5017706;28;20572;-51
2021/12/04 07:52:55;;;;;;;37.03;17.70;;;4.20;99.90;;;;;;5033344;28;20473;-51
2021/12/04 07:55:21;;;;;;;41.77;18.47;;;4.20;99.90;;;;;;5017928;28;20438;-51
2021/12/04 07:57:47;;;;;;;35.20;17.57;;;4.20;99.90;;;;;;5013590;28;20434;-50
2021/12/04 08:00:16;;;;;;;37.60;18.47;;;4.30;99.90;;;;;;5013787;28;20191;-51
2021/12/04 08:02:42;;;;;;;39.07;18.53;;;4.30;99.90;;;;;;5031926;28;20191;-51
2021/12/04 08:05:09;;;;;;;39.87;18.97;;;4.40;99.90;;;;;;5033060;28;20426;-51
2021/12/04 08:07:35;;;;;;;33.53;16.63;;;4.30;99.90;;;;;;5017249;28;20180;-51
2021/12/04 08:10:01;;;;;;;33.03;16.73;;;4.30;99.90;;;;;;5027783;28;20435;-51
2021/12/04 08:12:26;;;;;;;38.07;17.87;;;4.30;99.90;;;;;;5022797;28;20445;-51
2021/12/04 08:14:53;;;;;;;38.63;18.77;;;4.40;99.90;;;;;;5024621;28;20297;-51
2021/12/04 08:17:19;;;;;;;32.90;17.80;;;4.40;99.90;;;;;;5025340;28;20215;-51
2021/12/04 08:19:45;;;;;;;35.80;17.83;;;4.50;99.90;;;;;;5013414;28;20458;-51
2021/12/04 08:22:11;;;;;;;34.73;16.93;;;4.50;99.90;;;;;;5012817;28;20968;-52
2021/12/04 08:24:36;;;;;;;38.00;17.60;;;4.50;99.90;;;;;;5012640;28;20230;-51
2021/12/04 08:27:03;;;;;;;43.90;18.97;;;4.40;99.90;;;;;;5020831;28;20195;-51
2021/12/04 08:29:29;;;;;;;36.40;17.60;;;4.40;99.90;;;;;;5015089;28;20200;-51
2021/12/04 08:31:54;;;;;;;40.57;17.17;;;4.40;99.90;;;;;;5016878;28;20434;-51
2021/12/04 08:34:20;;;;;;;37.23;17.63;;;4.40;99.90;;;;;;5028006;28;20473;-51
2021/12/04 08:36:46;;;;;;;36.87;16.23;;;4.30;99.90;;;;;;5029407;28;20281;-52
2021/12/04 08:39:12;;;;;;;38.03;18.60;;;4.40;99.90;;;;;;5013752;28;20172;-51
2021/12/04 08:41:38;;;;;;;39.70;17.67;;;4.40;99.90;;;;;;5030148;28;20988;-51
2021/12/04 08:44:04;;;;;;;39.83;17.90;;;4.40;99.90;;;;;;5033121;28;20419;-51
2021/12/04 08:46:31;;;;;;;40.40;16.93;;;4.50;99.90;;;;;;5032017;28;20429;-51
2021/12/04 08:48:57;;;;;;;38.50;17.20;;;4.40;99.90;;;;;;5031740;28;20198;-52
2021/12/04 08:51:23;;;;;;;38.47;16.33;;;4.50;99.90;;;;;;5031632;28;20486;-51
2021/12/04 08:53:50;;;;;;;32.87;16.87;;;4.50;99.90;;;;;;5032040;28;20555;-51
2021/12/04 08:56:16;;;;;;;33.93;17.30;;;4.50;99.90;;;;;;5031390;28;20475;-52
2021/12/04 08:58:42;;;;;;;30.30;15.80;;;4.50;99.90;;;;;;5025243;28;20435;-52
2021/12/04 09:01:16;;;;;;;45.53;19.37;;;4.50;99.90;;;;;;5011901;28;20168;-51
2021/12/04 09:03:46;;;;;;;35.67;17.83;;;4.60;99.90;;;;;;5012470;28;20207;-51
2021/12/04 09:06:13;;;;;;;32.27;16.77;;;4.60;99.90;;;;;;5011870;28;20415;-53
2021/12/04 09:08:39;;;;;;;33.33;16.80;;;4.70;99.90;;;;;;5012047;28;20501;-52
2021/12/04 09:11:12;;;;;;;34.57;18.10;;;4.70;99.90;;;;;;5028198;28;20476;-51
2021/12/04 09:13:39;;;;;;;30.80;15.97;;;4.70;99.90;;;;;;5031570;28;20465;-51
2021/12/04 09:16:05;;;;;;;31.87;16.77;;;4.70;99.90;;;;;;5031771;28;20422;-52
2021/12/04 09:18:31;;;;;;;32.20;16.47;;;4.90;99.90;;;;;;5031555;28;20955;-52
2021/12/04 09:20:57;;;;;;;34.10;17.20;;;4.80;99.90;;;;;;5029784;28;20759;-51
2021/12/04 09:23:27;;;;;;;29.63;16.00;;;4.90;99.90;;;;;;5017507;28;20446;-52
2021/12/04 09:25:59;;;;;;;31.30;16.03;;;5.00;99.90;;;;;;5017421;28;20179;-52
2021/12/04 09:28:29;;;;;;;30.17;14.43;;;5.00;99.90;;;;;;5029155;28;20425;-54
2021/12/04 09:34:09;;;;;;;30.93;16.13;;;5.00;99.90;;;;;;5031922;28;20488;-53
2021/12/04 09:37:00;;;;;;;26.03;14.57;;;5.00;99.90;;;;;;5031597;28;20413;-53
2021/12/04 10:01:42;;;;;;;31.87;17.20;;;4.80;99.90;;;;;;5024834;28;20473;-53
2021/12/04 10:13:08;;;;;;;34.10;16.23;;;4.70;99.90;;;;;;5011922;28;20480;-52
2021/12/04 10:34:40;;;;;;;27.60;16.13;;;4.90;96.20;;;;;;5015352;28;20602;-53
2021/12/04 10:37:10;;;;;;;35.10;16.90;;;5.00;99.90;;;;;;5030497;28;20461;-53
2021/12/04 10:39:36;;;;;;;32.73;16.97;;;5.10;99.90;;;;;;5028128;28;20532;-53
2021/12/04 10:42:08;;;;;;;33.40;17.03;;;5.00;98.90;;;;;;5021159;28;20434;-53
2021/12/04 10:44:38;;;;;;;34.40;16.30;;;5.00;99.90;;;;;;5026290;28;20468;-53
2021/12/04 10:47:11;;;;;;;32.27;16.07;;;4.90;99.90;;;;;;5020027;28;20951;-53
2021/12/04 10:49:57;;;;;;;32.10;16.93;;;4.90;99.60;;;;;;5028432;28;21207;-53
2021/12/04 10:55:29;;;;;;;31.43;16.00;;;4.90;99.90;;;;;;5011599;28;20522;-53
2021/12/04 11:00:46;;;;;;;31.63;15.57;;;4.90;99.90;;;;;;5027503;28;20904;-53
2021/12/04 11:03:24;;;;;;;29.30;15.27;;;4.90;94.50;;;;;;5010491;28;20403;-54
2021/12/04 11:25:53;;;;;;;26.60;13.77;;;5.10;99.90;;;;;;5033272;28;20422;-54
2021/12/04 11:28:44;;;;;;;24.60;13.43;;;5.20;82.40;;;;;;5033153;28;20245;-53
2021/12/04 11:42:17;;;;;;;23.17;12.77;;;5.00;59.30;;;;;;5032747;28;20428;-54
2021/12/04 11:44:56;;;;;;;23.60;13.33;;;5.00;51.30;;;;;;5033068;28;21194;-54
2021/12/04 11:47:22;;;;;;;26.67;13.83;;;4.90;41.40;;;;;;5021998;28;20430;-55
2021/12/04 11:49:48;;;;;;;28.67;14.90;;;4.90;47.70;;;;;;5022976;28;20851;-53
2021/12/04 11:52:18;;;;;;;27.90;14.87;;;4.90;48.70;;;;;;5025745;28;20441;-52
2021/12/04 11:54:58;;;;;;;29.30;14.27;;;5.00;61.70;;;;;;5029872;28;20480;-52
2021/12/04 11:57:35;;;;;;;28.33;15.13;;;4.90;51.70;;;;;;5031359;28;20434;-52
2021/12/04 12:00:21;;;;;;;27.40;14.50;;;5.00;49.60;;;;;;5021966;28;20744;-52
2021/12/04 12:02:48;;;;;;;30.50;16.10;;;5.10;49.90;;;;;;5014731;28;20421;-52
2021/12/04 12:05:18;;;;;;;25.27;14.20;;;5.10;38.50;;;;;;5014407;28;20395;-52
2021/12/04 12:07:55;;;;;;;30.33;14.63;;;5.00;22.70;;;;;;5014191;28;20405;-52
2021/12/04 12:10:25;;;;;;;24.40;14.40;;;5.00;33.40;;;;;;5028604;28;20422;-52
2021/12/04 12:12:54;;;;;;;24.43;13.40;;;5.00;33.80;;;;;;5028914;28;20488;-53
2021/12/04 12:15:34;;;;;;;23.67;13.17;;;5.00;24.70;;;;;;5011847;28;20411;-52
2021/12/04 12:18:14;;;;;;;27.50;13.90;;;5.00;44.00;;;;;;5012836;28;20422;-52
2021/12/04 12:20:44;;;;;;;27.10;14.80;;;5.00;29.80;;;;;;5012853;28;20401;-55
2021/12/04 12:23:12;;;;;;;26.60;13.63;;;5.00;37.70;;;;;;5012714;28;20850;-52
2021/12/04 12:33:59;;;;;;;24.03;11.97;;;5.00;3.20;;;;;;5012387;28;20481;-52
2021/12/04 12:36:29;;;;;;;23.20;11.47;;;5.00;1.00;;;;;;5012042;28;20415;-52
2021/12/04 12:38:59;;;;;;;22.00;11.37;;;5.00;7.90;;;;;;5012228;28;20944;-52
2021/12/04 12:41:42;;;;;;;23.43;12.77;;;5.00;2.20;;;;;;5012122;28;20399;-52
2021/12/04 12:44:22;;;;;;;16.50;10.10;;;5.00;1.00;;;;;;5012366;28;20431;-52
2021/12/04 12:46:53;;;;;;;19.20;11.20;;;5.00;1.50;;;;;;5012246;28;20912;-52
2021/12/04 12:49:34;;;;;;;19.63;11.13;;;5.00;1.00;;;;;;5012379;28;20924;-53
2021/12/04 12:52:08;;;;;;;19.17;11.07;;;5.00;1.00;;;;;;5019577;28;20537;-52
2021/12/04 12:54:38;;;;;;;23.57;12.57;;;4.90;1.00;;;;;;5031376;28;20512;-52
2021/12/04 12:57:13;;;;;;;22.70;12.80;;;4.90;3.10;;;;;;5031770;28;20888;-52
2021/12/04 13:11:41;;;;;;;24.90;12.50;;;4.90;8.20;;;;;;5032157;28;20448;-52
2021/12/04 13:13:36;;;;;;;25.63;14.37;;;4.90;8.60;;;;;;5016049;28;20856;-52
2021/12/04 13:16:17;;;;;;;30.33;15.10;;;4.80;10.60;;;;;;5031904;28;20425;-52
2021/12/04 13:18:56;;;;;;;26.60;14.50;;;4.90;23.50;;;;;;5030708;28;20436;-58
2021/12/04 13:21:24;;;;;;;25.70;14.00;;;4.90;35.00;;;;;;5021653;28;20423;-52
2021/12/04 13:23:52;;;;;;;24.97;14.00;;;4.90;29.90;;;;;;5027933;28;20814;-52
2021/12/04 13:26:17;;;;;;;25.00;13.60;;;4.90;52.50;;;;;;5032464;28;20970;-52
2021/12/04 13:28:46;;;;;;;20.00;11.73;;;5.00;65.20;;;;;;5026042;28;20432;-53
2021/12/04 13:31:12;;;;;;;18.93;11.97;;;5.00;52.50;;;;;;5022079;28;20194;-52
2021/12/04 13:33:43;;;;;;;20.93;10.47;;;5.00;52.20;;;;;;5031527;28;20465;-52
2021/12/04 13:36:17;;;;;;;16.37;9.70;;;5.00;28.20;;;;;;5020287;28;20430;-52
2021/12/04 13:38:43;;;;;;;17.73;10.90;;;5.10;14.00;;;;;;5018155;28;20433;-52
2021/12/04 13:41:10;;;;;;;18.77;11.20;;;5.10;1.00;;;;;;5021542;28;20788;-52
2021/12/04 13:43:36;;;;;;;23.43;13.40;;;5.00;1.00;;;;;;5031511;28;20464;-52
2021/12/04 13:46:05;;;;;;;23.37;13.90;;;5.10;1.00;;;;;;5031164;28;20437;-52
2021/12/04 13:48:33;;;;;;;25.87;14.80;;;5.10;1.00;;;;;;5027095;28;20434;-52
2021/12/04 13:50:59;;;;;;;29.80;15.63;;;5.00;1.00;;;;;;5019549;28;20963;-53
2021/12/04 13:53:31;;;;;;;27.70;15.73;;;5.00;1.00;;;;;;5031146;28;20492;-52
2021/12/04 13:56:01;;;;;;;26.03;14.87;;;4.90;1.00;;;;;;5020714;28;20427;-52
2021/12/04 13:58:28;;;;;;;36.23;16.40;;;4.90;4.80;;;;;;5019815;28;20425;-52
2021/12/04 14:00:54;;;;;;;32.33;16.37;;;4.90;9.10;;;;;;5030779;28;20890;-52
2021/12/04 14:03:28;;;;;;;32.77;17.80;;;4.80;13.40;;;;;;5030979;28;20516;-52
2021/12/04 14:05:54;;;;;;;35.93;18.27;;;4.80;13.30;;;;;;5021898;28;20808;-52
2021/12/04 14:08:20;;;;;;;34.37;17.93;;;4.70;25.20;;;;;;5030910;28;20438;-52
2021/12/04 14:10:48;;;;;;;30.53;16.40;;;4.70;31.30;;;;;;5023248;28;20190;-52
2021/12/04 14:13:25;;;;;;;29.77;16.47;;;4.60;42.30;;;;;;5012889;28;20485;-53
2021/12/04 14:15:55;;;;;;;30.03;16.10;;;4.70;47.90;;;;;;5019605;28;20421;-52
2021/12/04 14:18:23;;;;;;;27.53;15.47;;;4.70;40.60;;;;;;5031828;28;20769;-52
2021/12/04 14:20:54;;;;;;;30.63;16.27;;;4.70;39.00;;;;;;5016084;28;20788;-52
2021/12/04 14:23:23;;;;;;;31.83;16.60;;;4.70;38.70;;;;;;5013644;28;20817;-53
2021/12/04 14:25:54;;;;;;;26.83;14.63;;;4.70;33.90;;;;;;5016653;28;21233;-52
2021/12/04 14:28:24;;;;;;;32.70;15.83;;;4.60;41.60;;;;;;5030409;28;20440;-52
2021/12/04 14:30:50;;;;;;;28.57;14.10;;;4.60;52.60;;;;;;5030799;28;20433;-53
2021/12/04 14:33:22;;;;;;;29.40;15.20;;;4.60;58.40;;;;;;5013264;28;20462;-52
2021/12/04 14:35:51;;;;;;;33.77;15.97;;;4.70;67.80;;;;;;5024505;28;20434;-52
2021/12/04 14:38:22;;;;;;;29.30;15.10;;;4.70;62.70;;;;;;5012040;28;20429;-54
2021/12/04 14:40:57;;;;;;;23.43;13.97;;;4.70;42.80;;;;;;5018380;28;20430;-54
2021/12/04 14:43:25;;;;;;;22.07;12.70;;;4.70;36.00;;;;;;5030434;28;20453;-53
2021/12/04 14:45:55;;;;;;;22.73;13.53;;;4.70;37.40;;;;;;5030752;28;20460;-53
2021/12/04 14:48:26;;;;;;;31.03;15.60;;;4.70;32.80;;;;;;5030974;28;20701;-61
2021/12/04 14:51:02;;;;;;;24.20;13.73;;;4.70;27.60;;;;;;5029912;28;20874;-53
2021/12/04 14:53:28;;;;;;;21.77;12.80;;;4.70;29.90;;;;;;5022086;28;20592;-53
2021/12/04 14:55:54;;;;;;;20.47;12.07;;;4.70;36.00;;;;;;5022838;28;20410;-53
2021/12/04 14:58:23;;;;;;;19.57;11.57;;;4.70;37.80;;;;;;5034302;28;20464;-53
2021/12/04 15:00:59;;;;;;;23.00;12.17;;;4.70;41.80;;;;;;5034865;28;20183;-53
2021/12/04 15:03:35;;;;;;;21.97;12.17;;;4.60;37.80;;;;;;5015203;28;20426;-53
2021/12/04 15:06:03;;;;;;;18.90;11.37;;;4.60;35.60;;;;;;5031267;28;20421;-51
2021/12/04 15:08:34;;;;;;;20.27;11.90;;;4.60;28.40;;;;;;5031064;28;20432;-53
2021/12/04 15:11:10;;;;;;;24.83;10.90;;;4.60;8.90;;;;;;5018048;28;20888;-53
2021/12/04 15:13:41;;;;;;;18.80;11.93;;;4.70;11.80;;;;;;5014522;28;20458;-54
2021/12/04 15:16:08;;;;;;;21.90;11.73;;;4.70;8.90;;;;;;5014815;28;20564;-53
2021/12/04 15:18:38;;;;;;;23.03;12.13;;;4.60;10.00;;;;;;5014430;28;20469;-53
2021/12/04 15:21:09;;;;;;;23.80;12.57;;;4.70;14.40;;;;;;5026731;28;20935;-53
2021/12/04 15:23:35;;;;;;;22.60;11.80;;;4.60;4.80;;;;;;5019163;28;20449;-53
2021/12/04 15:26:10;;;;;;;25.77;14.10;;;4.60;17.20;;;;;;5028280;28;20420;-54
2021/12/04 15:28:36;;;;;;;29.00;13.73;;;4.60;16.40;;;;;;5033946;28;20439;-52
2021/12/04 15:31:03;;;;;;;33.70;15.03;;;4.60;11.50;;;;;;5031162;28;20437;-53
2021/12/04 15:33:36;;;;;;;35.60;15.10;;;4.70;1.00;;;;;;5034067;28;20927;-53
2021/12/04 15:36:08;;;;;;;31.30;14.30;;;4.60;1.00;;;;;;5033190;28;20873;-53
2021/12/04 15:38:44;;;;;;;32.77;14.53;;;4.60;1.00;;;;;;5014314;28;20512;-53
2021/12/04 15:46:33;;;;;;;29.97;14.27;;;4.60;10.10;;;;;;5017967;28;20430;-53
2021/12/04 15:54:22;;;;;;;27.23;14.10;;;4.60;19.70;;;;;;5031588;28;20473;-53